sensor_id;sensor_type;location;lat;lon;timestamp;P1;durP1;ratioP1;P2;durP2;ratioP2
76733;SDS011;65660;53.288;14.666;2024-02-16T00:01:33;13.63;;;9.97;;
76733;SDS011;65660;53.288;14.666;2024-02-16T00:06:34;9.13;;;7.37;;
76733;SDS011;65660;53.288;14.666;2024-02-16T00:11:35;13.07;;;8.40;;
76733;SDS011;65660;53.288;14.666;2024-02-16T00:16:36;10.73;;;7.77;;
76733;SDS011;65660;53.288;14.666;2024-02-16T00:21:37;12.87;;;8.87;;
76733;SDS011;65660;53.288;14.666;2024-02-16T00:26:38;12.63;;;8.23;;
76733;SDS011;65660;53.288;14.666;2024-02-16T00:31:40;12.67;;;8.83;;
76733;SDS011;65660;53.288;14.666;2024-02-16T00:36:40;14.37;;;8.63;;
76733;SDS011;65660;53.288;14.666;2024-02-16T00:41:41;22.57;;;9.00;;
76733;SDS011;65660;53.288;14.666;2024-02-16T00:46:42;20.73;;;9.77;;
76733;SDS011;65660;53.288;14.666;2024-02-16T00:51:42;24.03;;;9.40;;
76733;SDS011;65660;53.288;14.666;2024-02-16T00:56:43;17.37;;;8.97;;
76733;SDS011;65660;53.288;14.666;2024-02-16T01:01:43;12.40;;;8.60;;
76733;SDS011;65660;53.288;14.666;2024-02-16T01:06:45;15.00;;;8.70;;
76733;SDS011;65660;53.288;14.666;2024-02-16T01:11:46;14.27;;;8.20;;
76733;SDS011;65660;53.288;14.666;2024-02-16T01:16:46;18.93;;;9.27;;
76733;SDS011;65660;53.288;14.666;2024-02-16T01:21:47;17.43;;;8.00;;
76733;SDS011;65660;53.288;14.666;2024-02-16T01:26:47;13.17;;;8.50;;
76733;SDS011;65660;53.288;14.666;2024-02-16T01:31:48;11.60;;;8.53;;
76733;SDS011;65660;53.288;14.666;2024-02-16T01:36:49;16.07;;;9.53;;
76733;SDS011;65660;53.288;14.666;2024-02-16T01:41:49;10.60;;;7.47;;
76733;SDS011;65660;53.288;14.666;2024-02-16T01:46:49;11.33;;;8.40;;
76733;SDS011;65660;53.288;14.666;2024-02-16T01:51:50;61.23;;;12.93;;
76733;SDS011;65660;53.288;14.666;2024-02-16T01:56:51;10.47;;;7.73;;
76733;SDS011;65660;53.288;14.666;2024-02-16T02:01:51;11.53;;;8.20;;
76733;SDS011;65660;53.288;14.666;2024-02-16T02:06:52;11.10;;;8.40;;
76733;SDS011;65660;53.288;14.666;2024-02-16T02:11:54;10.60;;;7.97;;
76733;SDS011;65660;53.288;14.666;2024-02-16T02:16:54;15.00;;;10.00;;
76733;SDS011;65660;53.288;14.666;2024-02-16T02:21:55;15.27;;;10.07;;
76733;SDS011;65660;53.288;14.666;2024-02-16T02:26:56;17.60;;;11.93;;
76733;SDS011;65660;53.288;14.666;2024-02-16T02:31:56;20.37;;;11.50;;
76733;SDS011;65660;53.288;14.666;2024-02-16T02:36:57;21.37;;;13.40;;
76733;SDS011;65660;53.288;14.666;2024-02-16T02:41:58;24.57;;;14.67;;
76733;SDS011;65660;53.288;14.666;2024-02-16T02:46:58;17.43;;;11.63;;
76733;SDS011;65660;53.288;14.666;2024-02-16T02:51:59;17.53;;;11.90;;
76733;SDS011;65660;53.288;14.666;2024-02-16T02:57:00;22.37;;;13.07;;
76733;SDS011;65660;53.288;14.666;2024-02-16T03:02:01;22.63;;;13.30;;
76733;SDS011;65660;53.288;14.666;2024-02-16T03:07:02;19.47;;;12.90;;
76733;SDS011;65660;53.288;14.666;2024-02-16T03:12:02;21.93;;;13.33;;
76733;SDS011;65660;53.288;14.666;2024-02-16T03:17:03;20.13;;;12.33;;
76733;SDS011;65660;53.288;14.666;2024-02-16T03:22:04;23.30;;;14.23;;
76733;SDS011;65660;53.288;14.666;2024-02-16T03:27:04;20.33;;;12.70;;
76733;SDS011;65660;53.288;14.666;2024-02-16T03:32:05;18.37;;;12.00;;
76733;SDS011;65660;53.288;14.666;2024-02-16T03:37:06;29.83;;;13.30;;
76733;SDS011;65660;53.288;14.666;2024-02-16T03:42:06;20.10;;;14.43;;
76733;SDS011;65660;53.288;14.666;2024-02-16T03:47:07;26.87;;;13.60;;
76733;SDS011;65660;53.288;14.666;2024-02-16T03:52:07;16.37;;;11.23;;
76733;SDS011;65660;53.288;14.666;2024-02-16T03:57:08;16.77;;;12.83;;
76733;SDS011;65660;53.288;14.666;2024-02-16T04:02:08;23.30;;;12.43;;
76733;SDS011;65660;53.288;14.666;2024-02-16T04:07:09;26.47;;;12.93;;
76733;SDS011;65660;53.288;14.666;2024-02-16T04:12:10;16.47;;;11.70;;
76733;SDS011;65660;53.288;14.666;2024-02-16T04:17:10;24.53;;;14.47;;
76733;SDS011;65660;53.288;14.666;2024-02-16T04:22:11;144.77;;;25.17;;
76733;SDS011;65660;53.288;14.666;2024-02-16T04:27:11;25.90;;;15.27;;
76733;SDS011;65660;53.288;14.666;2024-02-16T04:32:12;22.70;;;14.73;;
76733;SDS011;65660;53.288;14.666;2024-02-16T04:37:13;25.73;;;15.97;;
76733;SDS011;65660;53.288;14.666;2024-02-16T04:42:13;28.80;;;16.23;;
76733;SDS011;65660;53.288;14.666;2024-02-16T04:47:14;29.90;;;16.40;;
76733;SDS011;65660;53.288;14.666;2024-02-16T04:52:14;26.73;;;16.37;;
76733;SDS011;65660;53.288;14.666;2024-02-16T04:57:15;24.73;;;14.67;;
76733;SDS011;65660;53.288;14.666;2024-02-16T05:02:15;25.27;;;15.90;;
76733;SDS011;65660;53.288;14.666;2024-02-16T05:07:16;25.20;;;16.10;;
76733;SDS011;65660;53.288;14.666;2024-02-16T05:12:16;27.23;;;16.80;;
76733;SDS011;65660;53.288;14.666;2024-02-16T05:17:17;26.30;;;15.77;;
76733;SDS011;65660;53.288;14.666;2024-02-16T05:22:18;30.80;;;17.87;;
76733;SDS011;65660;53.288;14.666;2024-02-16T05:27:19;27.87;;;17.30;;
76733;SDS011;65660;53.288;14.666;2024-02-16T05:32:19;27.30;;;16.10;;
76733;SDS011;65660;53.288;14.666;2024-02-16T05:37:20;28.03;;;16.50;;
76733;SDS011;65660;53.288;14.666;2024-02-16T05:42:20;24.23;;;15.40;;
76733;SDS011;65660;53.288;14.666;2024-02-16T05:47:21;31.57;;;17.23;;
76733;SDS011;65660;53.288;14.666;2024-02-16T05:52:21;23.87;;;15.20;;
76733;SDS011;65660;53.288;14.666;2024-02-16T05:57:22;27.73;;;15.53;;
76733;SDS011;65660;53.288;14.666;2024-02-16T06:02:22;27.20;;;16.27;;
76733;SDS011;65660;53.288;14.666;2024-02-16T06:07:23;25.70;;;15.80;;
76733;SDS011;65660;53.288;14.666;2024-02-16T06:12:23;28.33;;;16.20;;
76733;SDS011;65660;53.288;14.666;2024-02-16T06:17:24;84.77;;;21.27;;
76733;SDS011;65660;53.288;14.666;2024-02-16T06:22:25;29.43;;;17.27;;
76733;SDS011;65660;53.288;14.666;2024-02-16T06:27:25;31.47;;;17.40;;
76733;SDS011;65660;53.288;14.666;2024-02-16T06:32:26;24.23;;;15.53;;
76733;SDS011;65660;53.288;14.666;2024-02-16T06:37:26;30.43;;;17.50;;
76733;SDS011;65660;53.288;14.666;2024-02-16T06:42:27;28.37;;;16.87;;
76733;SDS011;65660;53.288;14.666;2024-02-16T06:47:27;30.17;;;17.57;;
76733;SDS011;65660;53.288;14.666;2024-02-16T06:52:28;26.50;;;15.77;;
76733;SDS011;65660;53.288;14.666;2024-02-16T06:57:28;31.93;;;17.27;;
76733;SDS011;65660;53.288;14.666;2024-02-16T07:02:29;28.43;;;16.47;;
76733;SDS011;65660;53.288;14.666;2024-02-16T07:07:29;26.13;;;16.20;;
76733;SDS011;65660;53.288;14.666;2024-02-16T07:12:30;27.47;;;16.27;;
76733;SDS011;65660;53.288;14.666;2024-02-16T07:17:31;37.63;;;18.73;;
76733;SDS011;65660;53.288;14.666;2024-02-16T07:22:31;30.57;;;16.57;;
76733;SDS011;65660;53.288;14.666;2024-02-16T07:27:32;23.70;;;14.93;;
76733;SDS011;65660;53.288;14.666;2024-02-16T07:32:32;32.00;;;17.33;;
76733;SDS011;65660;53.288;14.666;2024-02-16T07:37:32;29.70;;;16.50;;
76733;SDS011;65660;53.288;14.666;2024-02-16T07:42:33;27.47;;;16.63;;
76733;SDS011;65660;53.288;14.666;2024-02-16T07:47:33;32.40;;;17.70;;
76733;SDS011;65660;53.288;14.666;2024-02-16T07:52:34;30.03;;;17.57;;
76733;SDS011;65660;53.288;14.666;2024-02-16T07:57:34;27.97;;;15.90;;
76733;SDS011;65660;53.288;14.666;2024-02-16T08:02:35;42.43;;;19.50;;
76733;SDS011;65660;53.288;14.666;2024-02-16T08:07:35;32.50;;;17.43;;
76733;SDS011;65660;53.288;14.666;2024-02-16T08:12:36;27.33;;;15.93;;
76733;SDS011;65660;53.288;14.666;2024-02-16T08:17:36;31.00;;;17.47;;
76733;SDS011;65660;53.288;14.666;2024-02-16T08:22:37;27.27;;;16.30;;
76733;SDS011;65660;53.288;14.666;2024-02-16T08:27:37;27.87;;;17.43;;
76733;SDS011;65660;53.288;14.666;2024-02-16T08:32:38;28.37;;;16.27;;
76733;SDS011;65660;53.288;14.666;2024-02-16T08:37:39;36.97;;;19.90;;
76733;SDS011;65660;53.288;14.666;2024-02-16T08:42:40;23.07;;;14.83;;
76733;SDS011;65660;53.288;14.666;2024-02-16T08:47:43;24.30;;;15.13;;
76733;SDS011;65660;53.288;14.666;2024-02-16T08:52:44;20.23;;;13.77;;
76733;SDS011;65660;53.288;14.666;2024-02-16T08:57:45;21.87;;;13.93;;
76733;SDS011;65660;53.288;14.666;2024-02-16T09:02:46;21.10;;;13.37;;
76733;SDS011;65660;53.288;14.666;2024-02-16T09:07:46;22.50;;;14.40;;
76733;SDS011;65660;53.288;14.666;2024-02-16T09:12:47;17.30;;;12.17;;
76733;SDS011;65660;53.288;14.666;2024-02-16T09:17:47;18.97;;;11.83;;
76733;SDS011;65660;53.288;14.666;2024-02-16T09:22:48;17.33;;;11.70;;
76733;SDS011;65660;53.288;14.666;2024-02-16T09:27:48;19.47;;;11.60;;
76733;SDS011;65660;53.288;14.666;2024-02-16T09:32:49;15.93;;;11.40;;
76733;SDS011;65660;53.288;14.666;2024-02-16T09:37:49;17.30;;;11.33;;
76733;SDS011;65660;53.288;14.666;2024-02-16T09:42:50;15.37;;;11.27;;
76733;SDS011;65660;53.288;14.666;2024-02-16T09:47:50;13.73;;;10.43;;
76733;SDS011;65660;53.288;14.666;2024-02-16T09:52:52;18.07;;;11.50;;
76733;SDS011;65660;53.288;14.666;2024-02-16T09:57:59;15.60;;;11.07;;
76733;SDS011;65660;53.288;14.666;2024-02-16T10:02:59;15.43;;;10.07;;
76733;SDS011;65660;53.288;14.666;2024-02-16T10:08:00;15.50;;;10.60;;
76733;SDS011;65660;53.288;14.666;2024-02-16T10:13:11;14.80;;;10.23;;
76733;SDS011;65660;53.288;14.666;2024-02-16T10:18:11;13.10;;;9.57;;
76733;SDS011;65660;53.288;14.666;2024-02-16T10:23:12;14.60;;;9.17;;
76733;SDS011;65660;53.288;14.666;2024-02-16T10:28:12;172.93;;;21.80;;
76733;SDS011;65660;53.288;14.666;2024-02-16T10:33:13;12.47;;;10.20;;
76733;SDS011;65660;53.288;14.666;2024-02-16T10:38:13;11.40;;;8.60;;
76733;SDS011;65660;53.288;14.666;2024-02-16T10:43:14;10.25;;;7.97;;
76733;SDS011;65660;53.288;14.666;2024-02-16T10:48:15;10.37;;;8.00;;
76733;SDS011;65660;53.288;14.666;2024-02-16T10:53:21;11.93;;;7.93;;
76733;SDS011;65660;53.288;14.666;2024-02-16T10:58:27;11.32;;;8.10;;
76733;SDS011;65660;53.288;14.666;2024-02-16T11:03:27;12.57;;;8.40;;
76733;SDS011;65660;53.288;14.666;2024-02-16T11:08:29;11.32;;;8.43;;
76733;SDS011;65660;53.288;14.666;2024-02-16T11:13:38;10.57;;;8.60;;
76733;SDS011;65660;53.288;14.666;2024-02-16T11:18:39;10.55;;;7.93;;
76733;SDS011;65660;53.288;14.666;2024-02-16T11:23:41;12.40;;;8.55;;
76733;SDS011;65660;53.288;14.666;2024-02-16T11:28:42;8.63;;;6.68;;
76733;SDS011;65660;53.288;14.666;2024-02-16T11:33:43;8.95;;;7.22;;
76733;SDS011;65660;53.288;14.666;2024-02-16T11:38:43;10.77;;;7.32;;
76733;SDS011;65660;53.288;14.666;2024-02-16T11:43:44;8.70;;;6.75;;
76733;SDS011;65660;53.288;14.666;2024-02-16T11:48:45;9.55;;;7.00;;
76733;SDS011;65660;53.288;14.666;2024-02-16T11:53:47;8.95;;;6.85;;
76733;SDS011;65660;53.288;14.666;2024-02-16T11:58:55;8.68;;;6.70;;
76733;SDS011;65660;53.288;14.666;2024-02-16T12:03:56;10.80;;;7.40;;
76733;SDS011;65660;53.288;14.666;2024-02-16T12:08:57;8.20;;;6.53;;
76733;SDS011;65660;53.288;14.666;2024-02-16T12:13:57;9.13;;;6.72;;
76733;SDS011;65660;53.288;14.666;2024-02-16T12:19:07;9.35;;;6.93;;
76733;SDS011;65660;53.288;14.666;2024-02-16T12:24:07;9.55;;;6.25;;
76733;SDS011;65660;53.288;14.666;2024-02-16T12:29:08;7.97;;;6.20;;
76733;SDS011;65660;53.288;14.666;2024-02-16T12:34:08;7.53;;;5.97;;
76733;SDS011;65660;53.288;14.666;2024-02-16T12:39:09;7.68;;;6.35;;
76733;SDS011;65660;53.288;14.666;2024-02-16T12:44:09;7.45;;;5.72;;
76733;SDS011;65660;53.288;14.666;2024-02-16T12:49:10;7.68;;;6.47;;
76733;SDS011;65660;53.288;14.666;2024-02-16T12:54:10;7.15;;;5.78;;
76733;SDS011;65660;53.288;14.666;2024-02-16T12:59:11;7.50;;;6.07;;
76733;SDS011;65660;53.288;14.666;2024-02-16T13:04:11;8.88;;;6.13;;
76733;SDS011;65660;53.288;14.666;2024-02-16T13:09:12;7.90;;;5.45;;
76733;SDS011;65660;53.288;14.666;2024-02-16T13:14:13;7.65;;;5.90;;
76733;SDS011;65660;53.288;14.666;2024-02-16T13:19:13;6.90;;;6.03;;
76733;SDS011;65660;53.288;14.666;2024-02-16T13:24:13;8.95;;;6.68;;
76733;SDS011;65660;53.288;14.666;2024-02-16T13:29:14;8.45;;;6.57;;
76733;SDS011;65660;53.288;14.666;2024-02-16T13:34:15;8.73;;;6.28;;
76733;SDS011;65660;53.288;14.666;2024-02-16T13:39:15;9.15;;;7.10;;
76733;SDS011;65660;53.288;14.666;2024-02-16T13:44:16;11.30;;;6.20;;
76733;SDS011;65660;53.288;14.666;2024-02-16T13:49:17;7.53;;;6.50;;
76733;SDS011;65660;53.288;14.666;2024-02-16T13:54:18;8.82;;;6.65;;
76733;SDS011;65660;53.288;14.666;2024-02-16T13:59:19;7.93;;;6.68;;
76733;SDS011;65660;53.288;14.666;2024-02-16T14:04:19;8.27;;;6.55;;
76733;SDS011;65660;53.288;14.666;2024-02-16T14:09:20;8.82;;;6.40;;
76733;SDS011;65660;53.288;14.666;2024-02-16T14:14:21;7.18;;;5.97;;
76733;SDS011;65660;53.288;14.666;2024-02-16T14:19:21;8.65;;;6.30;;
76733;SDS011;65660;53.288;14.666;2024-02-16T14:24:22;6.70;;;5.70;;
76733;SDS011;65660;53.288;14.666;2024-02-16T14:29:22;8.35;;;7.32;;
76733;SDS011;65660;53.288;14.666;2024-02-16T14:34:23;8.63;;;7.72;;
76733;SDS011;65660;53.288;14.666;2024-02-16T14:39:23;8.48;;;6.60;;
76733;SDS011;65660;53.288;14.666;2024-02-16T14:44:24;13.73;;;8.30;;
76733;SDS011;65660;53.288;14.666;2024-02-16T14:49:24;14.55;;;8.77;;
76733;SDS011;65660;53.288;14.666;2024-02-16T14:54:25;12.98;;;7.78;;
76733;SDS011;65660;53.288;14.666;2024-02-16T14:59:25;11.98;;;7.80;;
76733;SDS011;65660;53.288;14.666;2024-02-16T15:04:26;13.45;;;8.38;;
76733;SDS011;65660;53.288;14.666;2024-02-16T15:09:26;11.20;;;7.68;;
76733;SDS011;65660;53.288;14.666;2024-02-16T15:14:27;10.40;;;7.85;;
76733;SDS011;65660;53.288;14.666;2024-02-16T15:19:27;10.57;;;7.68;;
76733;SDS011;65660;53.288;14.666;2024-02-16T15:24:28;10.63;;;8.70;;
76733;SDS011;65660;53.288;14.666;2024-02-16T15:29:28;9.95;;;7.47;;
76733;SDS011;65660;53.288;14.666;2024-02-16T15:34:29;8.82;;;7.55;;
76733;SDS011;65660;53.288;14.666;2024-02-16T15:39:30;10.25;;;7.43;;
76733;SDS011;65660;53.288;14.666;2024-02-16T15:44:30;9.90;;;7.28;;
76733;SDS011;65660;53.288;14.666;2024-02-16T15:49:31;10.70;;;8.38;;
76733;SDS011;65660;53.288;14.666;2024-02-16T15:54:31;13.55;;;8.38;;
76733;SDS011;65660;53.288;14.666;2024-02-16T15:59:32;13.45;;;8.88;;
76733;SDS011;65660;53.288;14.666;2024-02-16T16:04:32;10.35;;;7.43;;
76733;SDS011;65660;53.288;14.666;2024-02-16T16:09:33;16.00;;;9.25;;
76733;SDS011;65660;53.288;14.666;2024-02-16T16:14:33;12.63;;;7.90;;
76733;SDS011;65660;53.288;14.666;2024-02-16T16:19:34;12.00;;;8.48;;
76733;SDS011;65660;53.288;14.666;2024-02-16T16:24:34;11.65;;;8.13;;
76733;SDS011;65660;53.288;14.666;2024-02-16T16:29:35;12.65;;;7.88;;
76733;SDS011;65660;53.288;14.666;2024-02-16T16:34:35;11.88;;;8.95;;
76733;SDS011;65660;53.288;14.666;2024-02-16T16:39:36;10.90;;;7.90;;
76733;SDS011;65660;53.288;14.666;2024-02-16T16:44:36;10.88;;;7.00;;
76733;SDS011;65660;53.288;14.666;2024-02-16T16:49:40;9.43;;;7.10;;
76733;SDS011;65660;53.288;14.666;2024-02-16T16:54:41;11.65;;;8.18;;
76733;SDS011;65660;53.288;14.666;2024-02-16T16:59:42;11.85;;;8.45;;
76733;SDS011;65660;53.288;14.666;2024-02-16T17:04:43;10.80;;;8.57;;
76733;SDS011;65660;53.288;14.666;2024-02-16T17:09:43;12.53;;;8.03;;
76733;SDS011;65660;53.288;14.666;2024-02-16T17:14:44;11.38;;;7.70;;
76733;SDS011;65660;53.288;14.666;2024-02-16T17:19:44;12.68;;;7.72;;
76733;SDS011;65660;53.288;14.666;2024-02-16T17:24:45;11.23;;;7.63;;
76733;SDS011;65660;53.288;14.666;2024-02-16T17:29:45;11.75;;;7.70;;
76733;SDS011;65660;53.288;14.666;2024-02-16T17:34:46;10.65;;;7.00;;
76733;SDS011;65660;53.288;14.666;2024-02-16T17:39:46;9.40;;;6.50;;
76733;SDS011;65660;53.288;14.666;2024-02-16T17:44:47;7.10;;;5.43;;
76733;SDS011;65660;53.288;14.666;2024-02-16T17:49:48;6.73;;;5.67;;
76733;SDS011;65660;53.288;14.666;2024-02-16T17:54:48;6.65;;;5.78;;
76733;SDS011;65660;53.288;14.666;2024-02-16T17:59:49;6.67;;;5.97;;
76733;SDS011;65660;53.288;14.666;2024-02-16T18:04:49;8.03;;;5.77;;
76733;SDS011;65660;53.288;14.666;2024-02-16T18:09:50;8.17;;;6.20;;
76733;SDS011;65660;53.288;14.666;2024-02-16T18:14:50;9.70;;;7.00;;
76733;SDS011;65660;53.288;14.666;2024-02-16T18:19:51;9.00;;;5.97;;
76733;SDS011;65660;53.288;14.666;2024-02-16T18:24:51;9.53;;;5.97;;
76733;SDS011;65660;53.288;14.666;2024-02-16T18:29:52;10.67;;;7.00;;
76733;SDS011;65660;53.288;14.666;2024-02-16T18:34:52;9.63;;;6.13;;
76733;SDS011;65660;53.288;14.666;2024-02-16T18:39:53;10.47;;;7.17;;
76733;SDS011;65660;53.288;14.666;2024-02-16T18:44:53;13.07;;;7.90;;
76733;SDS011;65660;53.288;14.666;2024-02-16T18:49:54;11.50;;;7.67;;
76733;SDS011;65660;53.288;14.666;2024-02-16T18:54:54;10.73;;;8.00;;
76733;SDS011;65660;53.288;14.666;2024-02-16T18:59:55;10.60;;;8.00;;
76733;SDS011;65660;53.288;14.666;2024-02-16T19:04:55;11.37;;;7.60;;
76733;SDS011;65660;53.288;14.666;2024-02-16T19:09:56;12.70;;;8.50;;
76733;SDS011;65660;53.288;14.666;2024-02-16T19:14:57;11.60;;;7.83;;
76733;SDS011;65660;53.288;14.666;2024-02-16T19:19:57;12.73;;;8.30;;
76733;SDS011;65660;53.288;14.666;2024-02-16T19:24:58;13.00;;;7.90;;
76733;SDS011;65660;53.288;14.666;2024-02-16T19:29:58;9.70;;;7.00;;
76733;SDS011;65660;53.288;14.666;2024-02-16T19:34:59;12.43;;;7.77;;
76733;SDS011;65660;53.288;14.666;2024-02-16T19:39:59;13.83;;;8.30;;
76733;SDS011;65660;53.288;14.666;2024-02-16T19:45:00;11.50;;;8.07;;
76733;SDS011;65660;53.288;14.666;2024-02-16T19:50:01;11.40;;;7.10;;
76733;SDS011;65660;53.288;14.666;2024-02-16T19:55:02;11.40;;;7.17;;
76733;SDS011;65660;53.288;14.666;2024-02-16T20:00:03;9.57;;;6.83;;
76733;SDS011;65660;53.288;14.666;2024-02-16T20:05:05;9.67;;;6.77;;
76733;SDS011;65660;53.288;14.666;2024-02-16T20:10:05;11.63;;;7.53;;
76733;SDS011;65660;53.288;14.666;2024-02-16T20:15:06;9.00;;;6.53;;
76733;SDS011;65660;53.288;14.666;2024-02-16T20:20:07;10.27;;;7.10;;
76733;SDS011;65660;53.288;14.666;2024-02-16T20:25:10;13.20;;;7.67;;
76733;SDS011;65660;53.288;14.666;2024-02-16T20:30:11;11.40;;;6.93;;
76733;SDS011;65660;53.288;14.666;2024-02-16T20:35:12;7.80;;;5.70;;
76733;SDS011;65660;53.288;14.666;2024-02-16T20:40:13;8.70;;;6.50;;
76733;SDS011;65660;53.288;14.666;2024-02-16T20:45:14;11.80;;;6.97;;
76733;SDS011;65660;53.288;14.666;2024-02-16T20:50:15;13.50;;;8.30;;
76733;SDS011;65660;53.288;14.666;2024-02-16T20:55:16;17.53;;;8.37;;
76733;SDS011;65660;53.288;14.666;2024-02-16T21:00:16;11.30;;;6.17;;
76733;SDS011;65660;53.288;14.666;2024-02-16T21:05:17;15.00;;;8.93;;
76733;SDS011;65660;53.288;14.666;2024-02-16T21:10:20;10.87;;;8.10;;
76733;SDS011;65660;53.288;14.666;2024-02-16T21:15:20;14.67;;;8.97;;
76733;SDS011;65660;53.288;14.666;2024-02-16T21:20:21;19.53;;;10.17;;
76733;SDS011;65660;53.288;14.666;2024-02-16T21:25:21;14.43;;;9.00;;
76733;SDS011;65660;53.288;14.666;2024-02-16T21:30:22;19.57;;;10.47;;
76733;SDS011;65660;53.288;14.666;2024-02-16T21:35:23;14.63;;;10.40;;
76733;SDS011;65660;53.288;14.666;2024-02-16T21:40:23;16.87;;;10.50;;
76733;SDS011;65660;53.288;14.666;2024-02-16T21:45:23;15.47;;;9.43;;
76733;SDS011;65660;53.288;14.666;2024-02-16T21:50:24;17.37;;;10.83;;
76733;SDS011;65660;53.288;14.666;2024-02-16T21:55:25;17.57;;;10.93;;
76733;SDS011;65660;53.288;14.666;2024-02-16T22:00:25;23.80;;;11.73;;
76733;SDS011;65660;53.288;14.666;2024-02-16T22:05:26;19.53;;;11.90;;
76733;SDS011;65660;53.288;14.666;2024-02-16T22:10:27;26.70;;;12.73;;
76733;SDS011;65660;53.288;14.666;2024-02-16T22:15:28;22.70;;;13.00;;
76733;SDS011;65660;53.288;14.666;2024-02-16T22:20:28;21.63;;;12.57;;
76733;SDS011;65660;53.288;14.666;2024-02-16T22:25:29;21.50;;;12.53;;
76733;SDS011;65660;53.288;14.666;2024-02-16T22:30:29;19.90;;;12.03;;
76733;SDS011;65660;53.288;14.666;2024-02-16T22:35:30;24.73;;;13.83;;
76733;SDS011;65660;53.288;14.666;2024-02-16T22:40:30;18.45;;;12.35;;
76733;SDS011;65660;53.288;14.666;2024-02-16T22:45:31;19.30;;;12.02;;
76733;SDS011;65660;53.288;14.666;2024-02-16T22:50:31;26.27;;;13.60;;
76733;SDS011;65660;53.288;14.666;2024-02-16T22:55:32;23.73;;;13.25;;
76733;SDS011;65660;53.288;14.666;2024-02-16T23:00:33;20.08;;;13.05;;
76733;SDS011;65660;53.288;14.666;2024-02-16T23:05:33;23.58;;;13.90;;
76733;SDS011;65660;53.288;14.666;2024-02-16T23:10:34;24.57;;;13.10;;
76733;SDS011;65660;53.288;14.666;2024-02-16T23:15:34;23.70;;;13.43;;
76733;SDS011;65660;53.288;14.666;2024-02-16T23:20:35;16.30;;;11.20;;
76733;SDS011;65660;53.288;14.666;2024-02-16T23:25:36;20.02;;;12.40;;
76733;SDS011;65660;53.288;14.666;2024-02-16T23:30:41;21.53;;;12.63;;
76733;SDS011;65660;53.288;14.666;2024-02-16T23:35:42;17.60;;;11.47;;
76733;SDS011;65660;53.288;14.666;2024-02-16T23:40:43;14.73;;;9.73;;
76733;SDS011;65660;53.288;14.666;2024-02-16T23:45:44;13.63;;;9.17;;
76733;SDS011;65660;53.288;14.666;2024-02-16T23:50:44;15.73;;;10.23;;
76733;SDS011;65660;53.288;14.666;2024-02-16T23:55:45;14.83;;;8.53;;
